createdAt,value
2022-08-05T00:00:29.219Z,21.51
2022-08-05T00:03:27.186Z,21.48
2022-08-05T00:06:33.424Z,21.45
2022-08-05T00:09:33.574Z,21.40
2022-08-05T00:12:31.035Z,21.38
2022-08-05T00:15:57.615Z,21.34
2022-08-05T00:18:45.998Z,21.31
2022-08-05T00:21:46.808Z,21.29
2022-08-05T00:24:44.306Z,21.27
2022-08-05T00:27:42.901Z,21.24
2022-08-05T00:30:41.062Z,21.20
2022-08-05T00:34:54.078Z,21.17
2022-08-05T00:37:11.793Z,21.13
2022-08-05T00:40:11.476Z,21.09
2022-08-05T00:43:08.946Z,21.06
2022-08-05T00:46:12.845Z,21.03
2022-08-05T00:49:14.094Z,21.01
2022-08-05T00:52:12.289Z,20.99
2022-08-05T00:55:09.787Z,20.97
2022-08-05T00:58:08.902Z,20.94
2022-08-05T01:01:09.646Z,20.91
2022-08-05T01:04:13.865Z,20.90
2022-08-05T01:07:13.704Z,20.88
2022-08-05T01:10:11.435Z,20.86
2022-08-05T01:13:13.237Z,20.84
2022-08-05T01:16:21.096Z,20.81
2022-08-05T01:19:56.230Z,20.78
2022-08-05T01:22:41.398Z,20.77
2022-08-05T01:25:40.577Z,20.77
2022-08-05T01:28:39.671Z,20.77
2022-08-05T01:31:42.766Z,20.75
2022-08-05T01:34:43.126Z,20.74
2022-08-05T01:37:44.372Z,20.72
2022-08-05T01:40:42.272Z,20.71
2022-08-05T01:43:39.748Z,20.70
2022-08-05T01:46:43.184Z,20.68
2022-08-05T01:50:01.567Z,20.66
2022-08-05T01:53:00.358Z,20.65
2022-08-05T01:55:57.872Z,20.63
2022-08-05T01:58:55.564Z,20.62
2022-08-05T02:01:54.844Z,20.60
2022-08-05T02:04:53.075Z,20.58
2022-08-05T02:08:00.043Z,20.57
2022-08-05T02:10:59.359Z,20.56
2022-08-05T02:13:56.855Z,20.53
2022-08-05T02:16:54.764Z,20.51
2022-08-05T02:19:52.255Z,20.49
2022-08-05T02:22:49.777Z,20.47
2022-08-05T02:25:49.364Z,20.43
2022-08-05T02:28:48.123Z,20.41
2022-08-05T02:31:45.984Z,20.38
2022-08-05T02:34:43.518Z,20.36
2022-08-05T02:37:53.968Z,20.33
2022-08-05T02:40:51.772Z,20.31
2022-08-05T02:44:02.379Z,20.28
2022-08-05T02:47:06.734Z,20.24
2022-08-05T02:50:04.240Z,20.23
2022-08-05T02:53:04.835Z,20.20
2022-08-05T02:56:09.403Z,20.18
2022-08-05T02:59:06.904Z,20.15
2022-08-05T03:02:04.457Z,20.13
2022-08-05T03:05:02.028Z,20.10
2022-08-05T03:08:08.660Z,20.08
2022-08-05T03:11:56.042Z,20.05
2022-08-05T03:14:24.271Z,20.02
2022-08-05T03:17:23.990Z,19.99
2022-08-05T03:20:22.605Z,19.98
2022-08-05T03:23:24.013Z,19.96
2022-08-05T03:26:31.995Z,19.95
2022-08-05T03:29:45.283Z,19.93
2022-08-05T03:32:47.653Z,19.91
2022-08-05T03:35:45.144Z,19.89
2022-08-05T03:38:43.229Z,19.87
2022-08-05T03:41:52.673Z,19.85
2022-08-05T03:44:53.795Z,19.83
2022-08-05T03:47:51.307Z,19.81
2022-08-05T03:50:48.818Z,19.79
2022-08-05T03:55:06.982Z,19.79
2022-08-05T03:57:16.719Z,19.78
2022-08-05T04:00:16.294Z,19.77
2022-08-05T04:03:14.989Z,19.76
2022-08-05T04:06:26.523Z,19.76
2022-08-05T04:09:26.337Z,19.76
2022-08-05T04:12:24.790Z,19.77
2022-08-05T04:15:24.494Z,19.78
2022-08-05T04:18:22.609Z,19.79
2022-08-05T04:22:09.746Z,19.82
2022-08-05T04:24:44.189Z,19.85
2022-08-05T04:27:43.856Z,19.86
2022-08-05T04:30:55.108Z,19.90
2022-08-05T04:34:18.713Z,19.93
2022-08-05T04:37:10.205Z,19.98
2022-08-05T04:40:08.469Z,20.02
2022-08-05T04:43:05.943Z,20.06
2022-08-05T04:46:08.582Z,20.11
2022-08-05T04:49:12.219Z,20.18
2022-08-05T04:52:12.536Z,20.23
2022-08-05T04:55:14.442Z,20.29
2022-08-05T04:58:12.818Z,20.36
2022-08-05T05:01:10.337Z,20.42
2022-08-05T05:04:09.462Z,20.49
2022-08-05T05:07:09.334Z,20.56
2022-08-05T05:10:07.255Z,20.65
2022-08-05T05:13:04.759Z,20.73
2022-08-05T05:16:06.135Z,20.81
2022-08-05T05:19:19.545Z,20.90
2022-08-05T05:22:24.618Z,21.02
2022-08-05T05:25:40.577Z,21.13
2022-08-05T05:28:38.978Z,21.26
2022-08-05T05:34:36.777Z,21.52
2022-08-05T05:37:37.429Z,21.64
2022-08-05T05:40:53.130Z,21.78
2022-08-05T05:43:58.372Z,21.88
2022-08-05T05:46:58.328Z,21.98
2022-08-05T05:50:01.520Z,22.08
2022-08-05T05:52:59.422Z,22.17
2022-08-05T05:56:00.744Z,22.26
2022-08-05T05:59:03.164Z,22.35
2022-08-05T06:02:01.398Z,22.41
2022-08-05T06:04:58.919Z,22.49
2022-08-05T06:08:01.646Z,22.59
2022-08-05T06:10:59.646Z,22.69
2022-08-05T06:13:58.043Z,22.81
2022-08-05T06:16:58.166Z,22.93
2022-08-05T06:19:59.395Z,23.04
2022-08-05T06:22:57.360Z,23.15
2022-08-05T06:26:12.890Z,23.26
2022-08-05T06:29:25.145Z,23.37
2022-08-05T06:32:30.716Z,23.51
2022-08-05T06:36:09.322Z,23.64
2022-08-05T06:38:47.150Z,23.82
2022-08-05T06:41:44.848Z,23.99
2022-08-05T06:44:42.346Z,24.14
2022-08-05T06:48:44.270Z,24.30
2022-08-05T06:51:09.325Z,24.50
2022-08-05T06:54:07.975Z,24.71
2022-08-05T06:57:57.808Z,24.95
2022-08-05T07:00:27.073Z,25.23
2022-08-05T07:03:28.011Z,25.51
2022-08-05T07:06:30.566Z,25.78
2022-08-05T07:09:32.363Z,26.04
2022-08-05T07:12:52.700Z,26.33
2022-08-05T07:16:07.966Z,26.64
2022-08-05T07:19:09.714Z,26.96
2022-08-05T07:22:07.199Z,27.24
2022-08-05T07:25:23.418Z,27.53
2022-08-05T07:28:23.111Z,27.88
2022-08-05T07:31:20.616Z,28.17
2022-08-05T07:34:42.051Z,28.51
2022-08-05T07:37:39.895Z,28.84
2022-08-05T07:40:45.070Z,29.16
2022-08-05T07:43:43.104Z,29.44
2022-08-05T07:46:40.582Z,29.70
2022-08-05T07:49:43.364Z,29.96
2022-08-05T07:52:51.639Z,30.27
2022-08-05T07:56:06.475Z,30.56
2022-08-05T07:59:08.411Z,30.85
2022-08-05T08:02:07.407Z,31.11
2022-08-05T08:05:13.891Z,31.37
2022-08-05T08:08:12.335Z,31.67
2022-08-05T08:11:10.105Z,31.99
2022-08-05T08:14:18.447Z,32.31
2022-08-05T08:17:16.683Z,32.62
2022-08-05T08:20:43.729Z,32.94
2022-08-05T08:24:03.403Z,33.26
2022-08-05T08:26:50.998Z,33.58
2022-08-05T08:30:04.209Z,33.88
2022-08-05T08:33:08.246Z,34.20
2022-08-05T08:36:38.474Z,34.48
2022-08-05T08:39:23.597Z,34.66
2022-08-05T08:42:34.431Z,34.88
2022-08-05T08:45:38.646Z,35.19
2022-08-05T08:49:03.340Z,35.48
2022-08-05T08:52:04.052Z,35.81
2022-08-05T08:55:04.558Z,36.13
2022-08-05T08:58:12.829Z,36.47
2022-08-05T09:01:16.455Z,36.79
2022-08-05T09:04:14.866Z,37.10
2022-08-05T09:07:19.700Z,37.41
2022-08-05T09:10:27.856Z,37.72
2022-08-05T09:13:31.808Z,37.98
2022-08-05T09:16:38.998Z,38.28
2022-08-05T09:20:01.441Z,38.52
2022-08-05T09:22:54.518Z,38.72
2022-08-05T09:26:06.540Z,38.91
2022-08-05T09:29:06.687Z,39.08
2022-08-05T09:32:45.803Z,39.30
2022-08-05T09:35:27.028Z,39.62
2022-08-05T09:38:27.441Z,39.80
2022-08-05T09:41:27.081Z,40.01
2022-08-05T09:44:30.723Z,40.28
2022-08-05T09:47:48.041Z,40.53
2022-08-05T09:50:45.745Z,40.81
2022-08-05T09:53:53.965Z,41.11
2022-08-05T09:56:52.789Z,41.35
2022-08-05T09:59:50.266Z,41.37
2022-08-05T10:02:49.791Z,41.42
2022-08-05T10:05:47.359Z,41.52
2022-08-05T10:08:50.349Z,41.67
2022-08-05T10:11:52.030Z,41.95
2022-08-05T10:14:49.632Z,42.14
2022-08-05T10:17:54.627Z,42.26
2022-08-05T10:20:55.489Z,42.43
2022-08-05T10:23:59.947Z,42.63
2022-08-05T10:27:01.228Z,42.83
2022-08-05T10:30:06.952Z,43.00
2022-08-05T10:33:16.478Z,43.10
2022-08-05T10:36:15.624Z,43.21
2022-08-05T10:39:15.345Z,43.32
2022-08-05T10:42:33.467Z,43.46
2022-08-05T10:45:40.025Z,43.63
2022-08-05T10:48:52.591Z,43.77
2022-08-05T10:52:00.557Z,43.99
2022-08-05T10:55:00.077Z,44.23
2022-08-05T10:57:57.617Z,44.42
2022-08-05T11:01:02.696Z,44.50
2022-08-05T11:04:00.860Z,44.58
2022-08-05T11:06:58.403Z,44.57
2022-08-05T11:10:04.049Z,44.62
2022-08-05T11:13:08.900Z,44.68
2022-08-05T11:16:06.414Z,44.76
2022-08-05T11:20:10.251Z,44.91
2022-08-05T11:22:21.674Z,45.03
2022-08-05T11:26:05.896Z,45.09
2022-08-05T11:28:36.633Z,45.04
2022-08-05T11:31:54.202Z,45.05
2022-08-05T11:34:54.130Z,45.23
2022-08-05T11:38:28.680Z,45.37
2022-08-05T11:41:34.636Z,45.52
2022-08-05T11:44:40.576Z,45.57
2022-08-05T11:47:49.831Z,45.61
2022-08-05T11:50:47.837Z,45.56
2022-08-05T11:53:46.426Z,45.59
2022-08-05T11:56:50.446Z,45.66
2022-08-05T11:59:50.681Z,45.67
2022-08-05T12:02:48.469Z,45.66
2022-08-05T12:05:45.995Z,45.69
2022-08-05T12:08:50.020Z,45.85
2022-08-05T12:11:48.910Z,45.93
2022-08-05T12:14:48.249Z,46.04
2022-08-05T12:18:10.183Z,46.11
2022-08-05T12:21:04.407Z,46.09
2022-08-05T12:24:04.771Z,46.04
2022-08-05T12:27:09.973Z,45.82
2022-08-05T12:30:20.987Z,45.65
2022-08-05T12:33:27.272Z,45.62
2022-08-05T12:36:25.688Z,45.55
2022-08-05T12:39:23.626Z,45.31
2022-08-05T12:42:25.868Z,45.19
2022-08-05T12:45:23.382Z,45.18
2022-08-05T12:48:41.252Z,45.06
2022-08-05T12:52:13.788Z,45.06
2022-08-05T12:54:57.994Z,45.08
2022-08-05T12:58:38.591Z,45.08
2022-08-05T13:02:02.596Z,44.97
2022-08-05T13:04:31.877Z,44.92
2022-08-05T13:07:59.287Z,44.87
2022-08-05T13:10:50.496Z,44.71
2022-08-05T13:14:04.607Z,44.50
2022-08-05T13:17:04.992Z,44.33
2022-08-05T13:20:02.735Z,44.30
2022-08-05T13:23:00.246Z,44.33
2022-08-05T13:26:01.308Z,44.39
2022-08-05T13:28:59.536Z,44.35
2022-08-05T13:32:04.609Z,44.23
2022-08-05T13:35:02.713Z,44.10
2022-08-05T13:38:05.079Z,44.05
2022-08-05T13:41:03.930Z,43.96
2022-08-05T13:44:02.066Z,43.82
2022-08-05T13:47:05.019Z,43.71
2022-08-05T13:50:11.206Z,43.64
2022-08-05T13:53:15.785Z,43.58
2022-08-05T13:56:19.024Z,43.53
2022-08-05T13:59:20.170Z,43.43
2022-08-05T14:02:20.065Z,43.33
2022-08-05T14:05:24.772Z,43.31
2022-08-05T14:08:28.051Z,43.28
2022-08-05T14:11:31.271Z,43.14
2022-08-05T14:14:33.653Z,43.06
2022-08-05T14:17:31.551Z,43.04
2022-08-05T14:20:29.737Z,42.97
2022-08-05T14:23:28.824Z,42.91
2022-08-05T14:26:38.625Z,42.80
2022-08-05T14:29:38.611Z,42.75
2022-08-05T14:32:37.193Z,42.65
2022-08-05T14:35:50.361Z,42.54
2022-08-05T14:38:49.196Z,42.49
2022-08-05T14:42:08.683Z,42.38
2022-08-05T14:45:04.162Z,42.22
2022-08-05T14:48:04.956Z,42.20
2022-08-05T14:51:03.821Z,42.13
2022-08-05T14:54:26.843Z,42.05
2022-08-05T14:57:18.834Z,41.96
2022-08-05T15:00:17.305Z,41.87
2022-08-05T15:03:17.507Z,41.81
2022-08-05T15:06:15.996Z,41.68
2022-08-05T15:09:13.551Z,41.53
2022-08-05T15:12:16.732Z,41.31
2022-08-05T15:15:15.405Z,41.07
2022-08-05T15:18:13.362Z,40.85
2022-08-05T15:21:13.952Z,40.67
2022-08-05T15:24:11.613Z,40.52
2022-08-05T15:27:09.698Z,40.36
2022-08-05T15:30:07.587Z,40.24
2022-08-05T15:33:07.407Z,40.17
2022-08-05T15:36:05.317Z,40.09
2022-08-05T15:40:41.719Z,39.97
2022-08-05T15:42:53.965Z,39.76
2022-08-05T15:45:38.997Z,39.61
2022-08-05T15:48:36.875Z,39.42
2022-08-05T15:52:14.019Z,39.23
2022-08-05T15:54:55.352Z,39.03
2022-08-05T15:57:54.111Z,38.81
2022-08-05T16:01:11.861Z,38.59
2022-08-05T16:04:11.971Z,38.35
2022-08-05T16:07:10.571Z,38.18
2022-08-05T16:10:11.537Z,37.99
2022-08-05T16:13:09.231Z,37.85
2022-08-05T16:16:06.710Z,37.69
2022-08-05T16:19:04.650Z,37.56
2022-08-05T16:22:03.407Z,37.43
2022-08-05T16:25:08.029Z,37.28
2022-08-05T16:28:09.659Z,37.13
2022-08-05T16:31:08.014Z,36.98
2022-08-05T16:34:08.161Z,36.85
2022-08-05T16:38:00.411Z,36.72
2022-08-05T16:40:28.526Z,36.56
2022-08-05T16:43:26.544Z,36.41
2022-08-05T16:46:25.012Z,36.25
2022-08-05T16:49:23.788Z,36.08
2022-08-05T16:52:21.288Z,35.92
2022-08-05T16:55:19.772Z,35.76
2022-08-05T16:58:19.853Z,35.59
2022-08-05T17:01:18.915Z,35.43
2022-08-05T17:04:16.637Z,35.27
2022-08-05T17:07:16.429Z,35.12
2022-08-05T17:10:33.899Z,34.96
2022-08-05T17:13:37.218Z,34.82
2022-08-05T17:16:35.988Z,34.67
2022-08-05T17:19:34.639Z,34.53
2022-08-05T17:22:32.113Z,34.41
2022-08-05T17:25:39.139Z,34.27
2022-08-05T17:28:38.734Z,34.13
2022-08-05T17:31:41.350Z,33.98
2022-08-05T17:34:54.109Z,33.84
2022-08-05T17:38:00.435Z,33.70
2022-08-05T17:41:02.314Z,33.56
2022-08-05T17:43:59.802Z,33.44
2022-08-05T17:46:57.280Z,33.31
2022-08-05T17:50:04.061Z,33.19
2022-08-05T17:53:02.243Z,33.08
2022-08-05T17:55:59.974Z,32.96
2022-08-05T17:59:00.332Z,32.84
2022-08-05T18:01:57.827Z,32.74
2022-08-05T18:04:55.379Z,32.63
2022-08-05T18:07:52.913Z,32.53
2022-08-05T18:10:50.654Z,32.42
2022-08-05T18:13:48.171Z,32.32
2022-08-05T18:16:51.503Z,32.22
2022-08-05T18:19:51.409Z,32.11
2022-08-05T18:22:54.877Z,32.00
2022-08-05T18:25:57.563Z,31.89
2022-08-05T18:28:56.535Z,31.78
2022-08-05T18:31:55.742Z,31.67
2022-08-05T18:34:53.270Z,31.57
2022-08-05T18:37:50.753Z,31.46
2022-08-05T18:41:56.227Z,31.37
2022-08-05T18:44:10.984Z,31.27
2022-08-05T18:47:10.419Z,31.18
2022-08-05T18:50:44.829Z,31.08
2022-08-05T18:53:45.846Z,30.97
2022-08-05T18:56:51.283Z,30.86
2022-08-05T19:00:01.887Z,30.77
2022-08-05T19:03:03.361Z,30.65
2022-08-05T19:06:13.575Z,30.56
2022-08-05T19:09:18.019Z,30.47
2022-08-05T19:12:17.065Z,30.38
2022-08-05T19:15:57.819Z,30.29
2022-08-05T19:18:34.587Z,30.20
2022-08-05T19:21:34.625Z,30.12
2022-08-05T19:24:34.059Z,30.03
2022-08-05T19:27:33.076Z,29.94
2022-08-05T19:30:30.934Z,29.86
2022-08-05T19:33:35.748Z,29.78
2022-08-05T19:36:34.528Z,29.70
2022-08-05T19:39:32.377Z,29.61
2022-08-05T19:43:04.927Z,29.53
2022-08-05T19:46:01.414Z,29.45
2022-08-05T19:49:03.336Z,29.37
2022-08-05T19:52:13.209Z,29.29
2022-08-05T19:56:15.053Z,29.21
2022-08-05T19:58:38.452Z,29.13
2022-08-05T20:01:52.201Z,29.04
2022-08-05T20:04:50.365Z,28.97
2022-08-05T20:07:49.267Z,28.89
2022-08-05T20:10:49.367Z,28.83
2022-08-05T20:13:58.843Z,28.77
2022-08-05T20:17:06.993Z,28.70
2022-08-05T20:20:09.446Z,28.64
2022-08-05T20:23:08.854Z,28.59
2022-08-05T20:26:16.146Z,28.53
2022-08-05T20:29:27.577Z,28.47
2022-08-05T20:32:25.925Z,28.41
2022-08-05T20:35:23.962Z,28.35
2022-08-05T20:38:26.948Z,28.30
2022-08-05T20:41:27.145Z,28.25
2022-08-05T20:44:29.434Z,28.21
2022-08-05T20:47:31.803Z,28.17
2022-08-05T20:50:30.190Z,28.15
2022-08-05T20:53:36.430Z,28.15
2022-08-05T20:56:41.893Z,28.15
2022-08-05T20:59:46.094Z,28.18
2022-08-05T21:03:01.168Z,28.19
2022-08-05T21:05:59.119Z,28.19
2022-08-05T21:08:56.604Z,28.20
2022-08-05T21:12:06.798Z,28.20
2022-08-05T21:15:08.694Z,28.20
2022-08-05T21:18:06.915Z,28.20
2022-08-05T21:21:04.710Z,28.18
2022-08-05T21:24:04.534Z,28.15
2022-08-05T21:27:02.301Z,28.12
2022-08-05T21:30:01.750Z,28.10
2022-08-05T21:33:00.026Z,28.08
2022-08-05T21:35:59.410Z,28.07
2022-08-05T21:38:56.985Z,28.07
2022-08-05T21:42:02.150Z,28.08
2022-08-05T21:45:00.093Z,28.07
2022-08-05T21:47:58.224Z,28.06
2022-08-05T21:50:55.725Z,28.04
2022-08-05T21:53:59.624Z,28.02
2022-08-05T22:00:19.622Z,27.93
2022-08-05T22:03:48.179Z,27.90
2022-08-05T22:06:39.620Z,27.85
2022-08-05T22:09:46.207Z,27.81
2022-08-05T22:12:45.054Z,27.77
2022-08-05T22:16:01.397Z,27.72
2022-08-05T22:19:02.338Z,27.68
2022-08-05T22:21:59.851Z,27.65
2022-08-05T22:25:21.373Z,27.63
2022-08-05T22:28:25.443Z,27.59
2022-08-05T22:31:23.084Z,27.58
2022-08-05T22:34:28.275Z,27.57
2022-08-05T22:37:26.486Z,27.56
2022-08-05T22:40:50.096Z,27.54
2022-08-05T22:43:52.705Z,27.52
2022-08-05T22:46:50.195Z,27.48
2022-08-05T22:50:20.521Z,27.45
2022-08-05T22:53:09.937Z,27.41
2022-08-05T22:56:09.878Z,27.37
2022-08-05T22:59:43.896Z,27.34
2022-08-05T23:02:29.583Z,27.30
2022-08-05T23:05:27.726Z,27.27
2022-08-05T23:08:25.296Z,27.25
2022-08-05T23:11:25.380Z,27.23
2022-08-05T23:14:32.356Z,27.24
2022-08-05T23:17:34.587Z,27.23
2022-08-05T23:20:37.393Z,27.23
2022-08-05T23:23:35.280Z,27.24
2022-08-05T23:26:33.419Z,27.26
2022-08-05T23:29:34.541Z,27.27
2022-08-05T23:32:32.299Z,27.29
2022-08-05T23:35:34.324Z,27.30
2022-08-05T23:38:32.367Z,27.32
2022-08-05T23:41:29.940Z,27.33
2022-08-05T23:44:32.481Z,27.33
2022-08-05T23:47:33.708Z,27.32
2022-08-05T23:50:31.356Z,27.31
2022-08-05T23:53:46.208Z,27.29
2022-08-05T23:56:44.629Z,27.24
